CheckWX is a tool to help pilots better visualize weather data.  It is not intended as a substitute for an official pre-flight weather briefing.

03:22:34 UTC

EBBR METAR
Brussels Airport
Brussels, Belgium
Current

33 mins ago

EBBR 220250Z 30004KT 9999 FEW008 BKN010 09/07 Q1020 TEMPO BKN004
Observed
May-22 @ 02:50 UTC
Wind
  • 300° at 4 KTS
Visibility
10,000+ meters
Flight Rules
MVFR
Cloud Levels
  • Few at 800' AGL
  • Broken at 1,000' AGL
Temperature
C / 48°F
Dewpoint
C / 45°F
Humidity
87%
Altimeter
30.12" Hg
Pressure
1019.92 hPa
Previous

1 hour ago

EBBR 220220Z 31004KT 9999 FEW007 BKN010 09/08 Q1020 TEMPO 4000 BR
Observed
May-22 @ 02:20 UTC
Wind
  • 310° at 4 KTS
Visibility
10,000+ meters
Flight Rules
MVFR
Cloud Levels
  • Few at 700' AGL
  • Broken at 1,000' AGL
Temperature
C / 48°F
Dewpoint
C / 46°F
Humidity
94%
Altimeter
30.12" Hg
Pressure
1019.92 hPa
Previous

2 hours ago

EBBR 220150Z 32004KT 280V350 9999 FEW007 BKN010 09/08 Q1019 TEMPO 4000 BR
Observed
May-22 @ 01:50 UTC
Wind
  • 320° at 4 KTS
Visibility
10,000+ meters
Flight Rules
MVFR
Cloud Levels
  • Few at 700' AGL
  • Broken at 1,000' AGL
Temperature
C / 48°F
Dewpoint
C / 46°F
Humidity
94%
Altimeter
30.09" Hg
Pressure
1018.92 hPa